Flight Track Log - Related Links

Times and Time Zones

All times are in EDT time to prevent confusion due to time zone crossing. See the N745VJ flight status page for this flight to view local times or setup timezone preferences in your user account.

Time Position Orientation Groundspeed Altitude Reporting Facility
EDT Latitude Longitude Course Direction KTS MPH feet Rate Location/Type
Tue 12:06:20 PM 35.2264 -80.9394 72° East 158 182 1,400  Level Atlanta Center
Tue 12:07:15 PM 35.2678 -80.9225 18° North 191 220 3,200 2,618 Climbing Atlanta Center
Tue 12:08:10 PM 35.2783 -80.8511 80° East 239 275 6,200 3,000 Climbing Atlanta Center
Tue 12:08:31 PM 35.2797 -80.8256 86° East 230 265 7,000 2,164 Climbing Atlanta Center
Tue 12:09:00 PM 35.2455 -80.5342 30° Northeast  Level FlightAware Approximate
Tue 12:09:11 PM 35.2908 -80.7667 77° East 281 323 8,400  Level Atlanta Center
Tue 12:09:31 PM 35.2919 -80.7308 88° East 278 320 9,500 2,852 Climbing Atlanta Center
Tue 12:10:00 PM 35.3358 -80.4572 72° East  Level FlightAware Approximate
Tue 12:10:12 PM 35.3028 -80.6694 78° East 290 334 11,300  Level Atlanta Center
Tue 12:10:31 PM 35.3081 -80.6311 80° East 296 341 12,000 2,658 Climbing Atlanta Center
Tue 12:11:00 PM 35.3730 -80.3163 72° East  Level FlightAware Approximate
Tue 12:11:31 PM 35.3233 -80.5158 81° East 339 390 14,800  Level Atlanta Center
Tue 12:13:14 PM 35.3803 -80.3178 71° East 359 413 19,100 2,415 Climbing Washington Center
Tue 12:14:15 PM 35.4164 -80.1950 70° East 364 419 21,400 2,168 Climbing Washington Center
Tue 12:15:13 PM 35.4506 -80.0642 72° East 381 438 23,400 1,983 Climbing Washington Center
Tue 12:16:13 PM 35.4867 -79.9361 71° East 381 438 25,300 1,750 Climbing Washington Center
Tue 12:17:13 PM 35.5231 -79.7978 72° East 400 460 26,900 843 Climbing Washington Center
Tue 12:18:14 PM 35.5550 -79.6592 74° East 413 475 27,000 149 Climbing Washington Center
Tue 12:19:14 PM 35.5928 -79.5206 71° East 423 487 27,200 843 Climbing Washington Center
Tue 12:20:15 PM 35.6328 -79.3844 70° East 423 487 28,700 893 Climbing Washington Center
Tue 12:21:15 PM 35.6892 -79.2492 63° Northeast 423 487 29,000 153 Climbing Washington Center
Tue 12:22:13 PM 35.7433 -79.1133 64° Northeast 434 499 29,000 403 Level Washington Center
Tue 12:23:14 PM 35.7994 -78.9775 63° Northeast 439 505 29,800 1,091 Climbing Washington Center
Tue 12:24:14 PM 35.8533 -78.8389 64° Northeast 439 505 31,200 1,462 Climbing Washington Center
Tue 12:25:13 PM 35.9153 -78.7031 61° Northeast 439 505 32,700 1,513 Climbing Washington Center
Tue 12:26:13 PM 35.9814 -78.5669 59° Northeast 450 518 34,200 1,438 Climbing Washington Center
Tue 12:27:14 PM 36.0450 -78.4358 59° Northeast 450 518 35,600 1,377 Climbing Washington Center
Tue 12:28:15 PM 36.1086 -78.3017 60° Northeast 450 518 37,000 1,190 Climbing Washington Center
Tue 12:29:15 PM 36.1742 -78.1678 59° Northeast 450 518 38,000 1,026 Climbing Washington Center
Tue 12:30:12 PM 36.2356 -78.0383 60° Northeast 450 518 39,000 508 Climbing Washington Center
Tue 12:31:13 PM 36.3006 -77.9039 59° Northeast 450 518 39,000  Level Washington Center
Tue 12:32:14 PM 36.3550 -77.7867 60° Northeast 442 509 39,000  Level Washington Center
Tue 12:33:15 PM 36.4200 -77.6517 59° Northeast 442 509 39,000  Level Washington Center
Tue 12:34:13 PM 36.4786 -77.5164 62° Northeast 437 503 39,000  Level Washington Center
Tue 12:35:13 PM 36.5411 -77.3836 60° Northeast 443 510 39,000  Level Washington Center
Tue 12:36:14 PM 36.6036 -77.2506 60° Northeast 443 510 39,000  Level Washington Center
Tue 12:37:14 PM 36.6681 -77.1144 59° Northeast 443 510 39,000  Level Washington Center
Tue 12:38:15 PM 36.7447 -76.9917 52° Northeast 443 510 39,000  Level Washington Center
Tue 12:39:13 PM 36.8417 -76.8947 39° Northeast 443 510 39,000  Level Washington Center
Tue 12:40:14 PM 36.9447 -76.8028 35° Northeast 443 510 39,000  Level Washington Center
Tue 12:41:14 PM 37.0564 -76.7006 36° Northeast 448 516 39,000  Level Washington Center
Tue 12:42:14 PM 37.1572 -76.6081 36° Northeast 448 516 39,000  Level Washington Center
Tue 12:43:15 PM 37.2581 -76.5181 35° Northeast 453 521 39,000  Level Washington Center
Tue 12:44:14 PM 37.3611 -76.4253 36° Northeast 453 521 39,000  Level Washington Center
Tue 12:45:15 PM 37.4617 -76.3322 36° Northeast 453 521 39,000  Level Washington Center
Tue 12:46:15 PM 37.5603 -76.2389 37° Northeast 453 521 39,000  Level Washington Center
Tue 12:47:13 PM 37.6650 -76.1506 34° Northeast 453 521 39,000  Level Washington Center
Tue 12:48:14 PM 37.7656 -76.0619 35° Northeast 453 521 39,000  Level Washington Center
Tue 12:49:15 PM 37.8639 -75.9625 39° Northeast 446 513 39,000  Level Washington Center
Tue 12:50:13 PM 37.9622 -75.8683 37° Northeast 446 513 39,000  Level Washington Center
Tue 12:51:14 PM 38.0625 -75.7764 36° Northeast 440 506 39,000  Level Washington Center
Tue 12:52:15 PM 38.1522 -75.6922 36° Northeast 440 506 39,000  Level Washington Center
Tue 12:53:15 PM 38.2503 -75.5997 37° Northeast 440 506 39,000  Level Washington Center
Tue 12:54:14 PM 38.3669 -75.5097 31° Northeast 440 506 39,000  Level Washington Center
Tue 12:55:14 PM 38.4836 -75.4564 20° North 434 499 39,000  Level Washington Center
Tue 12:56:15 PM 38.5983 -75.4083 18° North 434 499 39,000  Level Washington Center
Tue 12:57:15 PM 38.7150 -75.3575 19° North 434 499 39,000  Level Washington Center
Tue 12:58:13 PM 38.8317 -75.3092 18° North 434 499 39,000  Level Washington Center
Tue 12:59:13 PM 38.9483 -75.2606 18° North 439 505 39,000  Level Washington Center
Tue 01:00:14 PM 39.0647 -75.2119 18° North 439 505 39,000 -49 Level Washington Center
Tue 01:01:15 PM 39.1792 -75.1631 18° North 439 505 38,900  Descending Washington Center
Tue 01:02:13 PM 39.2936 -75.1061 21° North 434 499 39,000 51 Climbing Washington Center
Tue 01:03:13 PM 39.3933 -75.0222 33° Northeast 429 494 39,000  Level Washington Center
Tue 01:04:14 PM 39.4908 -74.9247 38° Northeast 431 496 39,000  Level Washington Center
Tue 01:05:14 PM 39.5861 -74.8294 38° Northeast 436 502 39,000 -298 Level Washington Center
Tue 01:06:15 PM 39.6731 -74.7422 38° Northeast 436 502 38,400 -698 Descending Washington Center
Tue 01:06:40 PM 39.7253 -74.6928 36° Northeast 457 526 38,000 -1,000 Descending New York Center
Tue 01:07:39 PM 39.8158 -74.6031 37° Northeast 462 532 37,000 -1,000 Descending New York Center
Tue 01:08:40 PM 39.9233 -74.4953 38° Northeast 450 518 36,000 -934 Descending New York Center
Tue 01:09:41 PM 40.0117 -74.4053 38° Northeast 450 518 35,100 -595 Descending New York Center
Tue 01:10:41 PM 40.1128 -74.3047 37° Northeast 450 518 34,800 -750 Descending New York Center
Tue 01:11:41 PM 40.2342 -74.2211 28° Northeast 450 518 33,600 -980 Descending New York Center
Tue 01:13:14 PM 40.3936 -74.1186 26° Northeast 441 507 32,300 -1,020 Descending Boston Center
Tue 01:14:14 PM 40.5028 -74.0475 26° Northeast 436 502 31,000 -2,050 Descending Boston Center
Tue 01:15:14 PM 40.6142 -73.9819 24° Northeast 430 495 28,200 -2,700 Descending Boston Center
Tue 01:16:14 PM 40.7236 -73.9133 25° Northeast 423 487 25,600 -2,100 Descending Boston Center
Tue 01:17:14 PM 40.8206 -73.8306 33° Northeast 423 487 24,000 -800 Descending Boston Center
Tue 01:18:14 PM 40.9031 -73.7281 43° Northeast 414 476 24,000 -450 Level Boston Center
Tue 01:19:14 PM 40.9853 -73.6225 44° Northeast 408 470 23,100 -500 Descending Boston Center
Tue 01:20:14 PM 41.0717 -73.5247 40° Northeast 403 464 23,000 -50 Descending Boston Center
Tue 01:21:14 PM 41.1539 -73.4242 43° Northeast 395 455 23,000 -150 Level Boston Center
Tue 01:22:14 PM 41.2522 -73.3817 18° North 379 436 22,700 -650 Descending Boston Center
Tue 01:23:14 PM 41.3583 -73.3997 353° North 360 414 21,700 -1,000 Descending Boston Center
Tue 01:24:14 PM 41.4647 -73.4153 354° North 365 420 20,700 -1,300 Descending Boston Center
Tue 01:25:14 PM 41.5644 -73.4361 351° North 365 420 19,100 -2,050 Descending Boston Center
Tue 01:26:14 PM 41.6747 -73.4544 353° North 365 420 16,600 -2,250 Descending Boston Center
Tue 01:27:14 PM 41.7622 -73.4669 354° North 365 420 14,600 -1,550 Descending Boston Center
Tue 01:28:14 PM 41.8725 -73.4883 352° North 365 420 13,500 -1,000 Descending Boston Center
Tue 01:29:14 PM 41.9597 -73.5039 352° North 356 410 12,600 -1,000 Descending Boston Center
Tue 01:30:14 PM 42.0658 -73.5222 353° North 345 397 11,500 -842 Descending Boston Center
Tue 01:31:08 PM 42.1494 -73.5211 North 313 360 11,000 -261 Descending Boston Center
Tue 01:32:09 PM 42.2286 -73.5111 North 284 327 11,000 -429 Level Boston Center
Tue 01:33:14 PM 42.3078 -73.5125 359° North 293 337 10,100 -1,164 Descending Boston Center
Tue 01:34:23 PM 42.4014 -73.5450 346° North 280 322 8,400 -1,600 Descending Boston Center
Tue 01:35:29 PM 42.4822 -73.5747 345° North 274 315 6,500 -1,534 Descending Boston Center
Tue 01:36:36 PM 42.5675 -73.6044 346° North 274 315 5,000 -828 Descending Boston Center
Tue 01:37:25 PM 42.6236 -73.6222 347° North 274 315 4,900 -55 Descending Boston Center
Tue 01:38:25 PM 42.7003 -73.6519 344° North 274 315 4,900 -248 Level Boston Center
Tue 01:39:26 PM 42.7750 -73.6761 347° North 266 306 4,400 -466 Descending Boston Center
Tue 01:40:21 PM 42.8353 -73.6972 346° North 230 265 4,000 -209 Descending Boston Center
Tue 01:41:21 PM 42.8975 -73.7156 348° North 226 260 4,000 -149 Level Boston Center
Tue 01:42:22 PM 42.9556 -73.7478 338° Northwest 227 261 3,700 -393 Descending Boston Center
Tue 01:43:23 PM 42.9653 -73.8161 281° West 184 212 3,200 -492 Descending Boston Center

Login

Don't have an account? Register now (free) for customized features, flight alerts, and more!